createdAt,value
2022-11-03T08:06:17.215Z,13.10
2022-11-03T08:16:14.695Z,13.30
2022-11-03T08:21:08.826Z,13.40
2022-11-03T08:26:04.307Z,13.50
2022-11-03T08:31:02.234Z,13.70
2022-11-03T08:35:55.930Z,14.00
2022-11-03T08:40:54.235Z,14.20
2022-11-03T08:45:53.691Z,14.40
2022-11-03T08:50:47.441Z,14.60
2022-11-03T08:55:41.379Z,15.00
2022-11-03T09:00:40.577Z,15.30
2022-11-03T09:05:36.545Z,15.50
2022-11-03T09:10:33.510Z,15.30
2022-11-03T09:15:30.881Z,15.10
2022-11-03T09:20:24.784Z,15.10
2022-11-03T09:25:20.627Z,15.00
2022-11-03T09:30:14.839Z,14.90
2022-11-03T09:35:10.950Z,14.60
2022-11-03T09:40:06.719Z,14.30
2022-11-03T09:45:03.412Z,14.00
2022-11-03T09:49:58.366Z,13.90
2022-11-03T09:54:55.450Z,13.90
2022-11-03T09:59:52.370Z,13.90
2022-11-03T10:04:47.787Z,13.90
2022-11-03T10:09:45.802Z,14.00
2022-11-03T10:14:39.640Z,14.20
2022-11-03T10:19:33.576Z,14.30
2022-11-03T10:24:28.588Z,14.40
2022-11-03T10:29:23.809Z,14.60
2022-11-03T10:34:33.862Z,14.50
2022-11-03T10:54:48.301Z,14.30
2022-11-03T10:59:43.674Z,14.30
2022-11-03T11:20:08.526Z,14.30
2022-11-03T11:25:04.459Z,14.30
2022-11-03T12:03:50.843Z,14.30
2022-11-03T12:08:45.322Z,14.10
2022-11-03T12:13:47.735Z,13.90
2022-11-03T12:49:14.994Z,14.00
2022-11-03T12:54:08.551Z,14.00
2022-11-03T12:59:02.914Z,14.00
2022-11-03T13:03:56.792Z,14.30
2022-11-03T13:08:53.381Z,14.30
2022-11-03T14:19:37.915Z,13.70
